sensor_id;sensor_type;location;lat;lon;timestamp;temperature;humidity
17364;DHT22;8799;43.594;13.526;2022-07-05T00:00:36;29.40;90.00
17364;DHT22;8799;43.594;13.526;2022-07-05T00:03:04;29.30;90.50
17364;DHT22;8799;43.594;13.526;2022-07-05T00:05:32;29.30;91.00
17364;DHT22;8799;43.594;13.526;2022-07-05T00:07:59;29.30;91.30
17364;DHT22;8799;43.594;13.526;2022-07-05T00:10:28;29.20;91.80
17364;DHT22;8799;43.594;13.526;2022-07-05T00:12:56;29.20;92.20
17364;DHT22;8799;43.594;13.526;2022-07-05T00:15:24;29.20;92.20
17364;DHT22;8799;43.594;13.526;2022-07-05T00:17:51;29.20;92.20
17364;DHT22;8799;43.594;13.526;2022-07-05T00:20:19;29.30;92.20
17364;DHT22;8799;43.594;13.526;2022-07-05T00:22:46;29.20;92.30
17364;DHT22;8799;43.594;13.526;2022-07-05T00:25:14;29.30;92.20
17364;DHT22;8799;43.594;13.526;2022-07-05T00:27:43;29.20;92.30
17364;DHT22;8799;43.594;13.526;2022-07-05T00:30:13;29.30;92.20
17364;DHT22;8799;43.594;13.526;2022-07-05T00:32:40;29.30;92.20
17364;DHT22;8799;43.594;13.526;2022-07-05T00:35:08;29.30;92.20
17364;DHT22;8799;43.594;13.526;2022-07-05T00:37:36;29.30;92.40
17364;DHT22;8799;43.594;13.526;2022-07-05T00:40:05;29.20;92.50
17364;DHT22;8799;43.594;13.526;2022-07-05T00:42:33;29.20;92.70
17364;DHT22;8799;43.594;13.526;2022-07-05T00:45:04;29.20;92.90
17364;DHT22;8799;43.594;13.526;2022-07-05T00:47:32;29.20;93.10
17364;DHT22;8799;43.594;13.526;2022-07-05T00:50:00;29.20;93.00
17364;DHT22;8799;43.594;13.526;2022-07-05T00:52:27;29.20;92.80
17364;DHT22;8799;43.594;13.526;2022-07-05T00:54:55;29.10;92.70
17364;DHT22;8799;43.594;13.526;2022-07-05T00:57:23;29.00;92.70
17364;DHT22;8799;43.594;13.526;2022-07-05T00:59:50;29.00;93.00
17364;DHT22;8799;43.594;13.526;2022-07-05T01:02:20;29.00;93.00
17364;DHT22;8799;43.594;13.526;2022-07-05T01:04:49;29.10;92.70
17364;DHT22;8799;43.594;13.526;2022-07-05T01:07:18;29.10;92.00
17364;DHT22;8799;43.594;13.526;2022-07-05T01:09:48;29.20;91.10
17364;DHT22;8799;43.594;13.526;2022-07-05T01:12:16;29.30;89.80
17364;DHT22;8799;43.594;13.526;2022-07-05T01:14:45;29.20;89.30
17364;DHT22;8799;43.594;13.526;2022-07-05T01:17:12;29.30;89.80
17364;DHT22;8799;43.594;13.526;2022-07-05T01:19:41;29.20;90.00
17364;DHT22;8799;43.594;13.526;2022-07-05T01:22:15;29.20;90.20
17364;DHT22;8799;43.594;13.526;2022-07-05T01:24:46;29.20;89.70
17364;DHT22;8799;43.594;13.526;2022-07-05T01:27:14;29.10;89.90
17364;DHT22;8799;43.594;13.526;2022-07-05T01:29:42;29.00;90.30
17364;DHT22;8799;43.594;13.526;2022-07-05T01:32:10;29.00;89.80
17364;DHT22;8799;43.594;13.526;2022-07-05T01:34:38;29.00;89.40
17364;DHT22;8799;43.594;13.526;2022-07-05T01:37:06;29.10;88.80
17364;DHT22;8799;43.594;13.526;2022-07-05T01:39:34;29.10;88.20
17364;DHT22;8799;43.594;13.526;2022-07-05T01:42:04;29.20;87.80
17364;DHT22;8799;43.594;13.526;2022-07-05T01:44:31;29.20;86.10
17364;DHT22;8799;43.594;13.526;2022-07-05T01:47:06;29.20;85.50
17364;DHT22;8799;43.594;13.526;2022-07-05T01:49:39;29.20;85.60
17364;DHT22;8799;43.594;13.526;2022-07-05T01:52:09;29.10;85.90
17364;DHT22;8799;43.594;13.526;2022-07-05T01:54:38;29.00;85.70
17364;DHT22;8799;43.594;13.526;2022-07-05T01:57:08;29.00;85.80
17364;DHT22;8799;43.594;13.526;2022-07-05T01:59:37;28.90;85.00
17364;DHT22;8799;43.594;13.526;2022-07-05T02:02:06;28.80;85.20
17364;DHT22;8799;43.594;13.526;2022-07-05T02:04:34;28.80;85.50
17364;DHT22;8799;43.594;13.526;2022-07-05T02:07:04;28.80;85.00
17364;DHT22;8799;43.594;13.526;2022-07-05T02:09:32;28.80;84.50
17364;DHT22;8799;43.594;13.526;2022-07-05T02:12:00;28.80;84.30
17364;DHT22;8799;43.594;13.526;2022-07-05T02:14:29;28.70;84.00
17364;DHT22;8799;43.594;13.526;2022-07-05T02:16:56;28.80;83.40
17364;DHT22;8799;43.594;13.526;2022-07-05T02:19:24;28.80;83.00
17364;DHT22;8799;43.594;13.526;2022-07-05T02:21:51;28.70;83.60
17364;DHT22;8799;43.594;13.526;2022-07-05T02:24:23;28.60;84.50
17364;DHT22;8799;43.594;13.526;2022-07-05T02:26:51;28.60;84.60
17364;DHT22;8799;43.594;13.526;2022-07-05T02:29:19;28.60;84.10
17364;DHT22;8799;43.594;13.526;2022-07-05T02:31:48;28.60;83.10
17364;DHT22;8799;43.594;13.526;2022-07-05T02:34:15;28.60;82.00
17364;DHT22;8799;43.594;13.526;2022-07-05T02:36:43;28.60;81.80
17364;DHT22;8799;43.594;13.526;2022-07-05T02:39:11;28.60;82.30
17364;DHT22;8799;43.594;13.526;2022-07-05T02:41:39;28.50;83.10
17364;DHT22;8799;43.594;13.526;2022-07-05T02:44:06;28.50;84.10
17364;DHT22;8799;43.594;13.526;2022-07-05T02:46:33;28.50;84.00
17364;DHT22;8799;43.594;13.526;2022-07-05T02:49:03;28.50;83.40
17364;DHT22;8799;43.594;13.526;2022-07-05T02:51:30;28.60;82.10
17364;DHT22;8799;43.594;13.526;2022-07-05T02:53:58;28.60;82.20
17364;DHT22;8799;43.594;13.526;2022-07-05T02:56:26;28.60;83.00
17364;DHT22;8799;43.594;13.526;2022-07-05T02:58:53;28.60;83.60
17364;DHT22;8799;43.594;13.526;2022-07-05T03:01:21;28.60;82.90
17364;DHT22;8799;43.594;13.526;2022-07-05T03:03:48;28.60;81.50
17364;DHT22;8799;43.594;13.526;2022-07-05T03:06:18;28.60;80.90
17364;DHT22;8799;43.594;13.526;2022-07-05T03:08:45;28.60;81.90
17364;DHT22;8799;43.594;13.526;2022-07-05T03:11:13;28.60;81.50
17364;DHT22;8799;43.594;13.526;2022-07-05T03:13:40;28.60;81.30
17364;DHT22;8799;43.594;13.526;2022-07-05T03:16:07;28.70;79.40
17364;DHT22;8799;43.594;13.526;2022-07-05T03:18:36;28.70;80.30
17364;DHT22;8799;43.594;13.526;2022-07-05T03:21:04;28.80;79.60
17364;DHT22;8799;43.594;13.526;2022-07-05T03:23:37;28.80;79.20
17364;DHT22;8799;43.594;13.526;2022-07-05T03:26:04;28.90;78.80
17364;DHT22;8799;43.594;13.526;2022-07-05T03:28:32;28.80;79.00
17364;DHT22;8799;43.594;13.526;2022-07-05T03:31:00;28.80;79.00
17364;DHT22;8799;43.594;13.526;2022-07-05T03:33:27;28.90;79.20
17364;DHT22;8799;43.594;13.526;2022-07-05T03:35:59;28.90;79.70
17364;DHT22;8799;43.594;13.526;2022-07-05T03:38:27;28.90;79.70
17364;DHT22;8799;43.594;13.526;2022-07-05T03:40:56;29.00;81.10
17364;DHT22;8799;43.594;13.526;2022-07-05T03:43:23;29.00;80.90
17364;DHT22;8799;43.594;13.526;2022-07-05T03:45:51;29.00;80.70
17364;DHT22;8799;43.594;13.526;2022-07-05T03:48:20;29.10;79.90
17364;DHT22;8799;43.594;13.526;2022-07-05T03:50:47;29.10;79.70
17364;DHT22;8799;43.594;13.526;2022-07-05T03:53:15;29.10;78.90
17364;DHT22;8799;43.594;13.526;2022-07-05T03:55:43;29.10;78.60
17364;DHT22;8799;43.594;13.526;2022-07-05T03:58:12;29.10;78.90
17364;DHT22;8799;43.594;13.526;2022-07-05T04:00:39;29.10;78.50
17364;DHT22;8799;43.594;13.526;2022-07-05T04:03:07;29.10;78.00
17364;DHT22;8799;43.594;13.526;2022-07-05T04:05:35;29.10;77.80
17364;DHT22;8799;43.594;13.526;2022-07-05T04:08:07;29.10;77.50
17364;DHT22;8799;43.594;13.526;2022-07-05T04:13:11;29.10;77.20
17364;DHT22;8799;43.594;13.526;2022-07-05T04:15:39;29.10;77.00
17364;DHT22;8799;43.594;13.526;2022-07-05T04:18:07;29.20;77.20
17364;DHT22;8799;43.594;13.526;2022-07-05T04:20:35;29.10;77.20
17364;DHT22;8799;43.594;13.526;2022-07-05T04:23:03;29.10;77.20
17364;DHT22;8799;43.594;13.526;2022-07-05T04:25:31;29.10;77.40
17364;DHT22;8799;43.594;13.526;2022-07-05T04:27:59;29.10;77.70
17364;DHT22;8799;43.594;13.526;2022-07-05T04:30:28;29.10;77.80
17364;DHT22;8799;43.594;13.526;2022-07-05T04:32:56;29.10;77.80
17364;DHT22;8799;43.594;13.526;2022-07-05T04:35:24;29.10;77.80
17364;DHT22;8799;43.594;13.526;2022-07-05T04:37:52;29.10;77.70
17364;DHT22;8799;43.594;13.526;2022-07-05T04:40:19;29.20;77.80
17364;DHT22;8799;43.594;13.526;2022-07-05T04:42:47;29.20;77.70
17364;DHT22;8799;43.594;13.526;2022-07-05T04:45:14;29.20;77.70
17364;DHT22;8799;43.594;13.526;2022-07-05T04:47:44;29.20;77.80
17364;DHT22;8799;43.594;13.526;2022-07-05T04:50:15;29.20;77.80
17364;DHT22;8799;43.594;13.526;2022-07-05T04:52:43;29.20;77.70
17364;DHT22;8799;43.594;13.526;2022-07-05T04:55:11;29.20;77.50
17364;DHT22;8799;43.594;13.526;2022-07-05T04:57:38;29.20;77.60
17364;DHT22;8799;43.594;13.526;2022-07-05T05:00:07;29.20;77.60
17364;DHT22;8799;43.594;13.526;2022-07-05T05:02:35;29.20;77.70
17364;DHT22;8799;43.594;13.526;2022-07-05T05:05:05;29.20;77.70
17364;DHT22;8799;43.594;13.526;2022-07-05T05:07:33;29.30;77.70
17364;DHT22;8799;43.594;13.526;2022-07-05T05:10:03;29.20;77.70
17364;DHT22;8799;43.594;13.526;2022-07-05T05:12:31;29.30;77.70
17364;DHT22;8799;43.594;13.526;2022-07-05T05:14:59;29.30;77.90
17364;DHT22;8799;43.594;13.526;2022-07-05T05:17:34;29.20;78.20
17364;DHT22;8799;43.594;13.526;2022-07-05T05:20:02;29.20;78.40
17364;DHT22;8799;43.594;13.526;2022-07-05T05:22:31;29.20;78.40
17364;DHT22;8799;43.594;13.526;2022-07-05T05:24:59;29.20;78.40
17364;DHT22;8799;43.594;13.526;2022-07-05T05:27:27;29.20;78.40
17364;DHT22;8799;43.594;13.526;2022-07-05T05:29:55;29.20;78.60
17364;DHT22;8799;43.594;13.526;2022-07-05T05:32:23;29.20;78.40
17364;DHT22;8799;43.594;13.526;2022-07-05T05:34:54;29.20;78.30
17364;DHT22;8799;43.594;13.526;2022-07-05T05:37:22;29.20;78.40
17364;DHT22;8799;43.594;13.526;2022-07-05T05:39:51;29.20;78.40
17364;DHT22;8799;43.594;13.526;2022-07-05T05:42:18;29.20;78.40
17364;DHT22;8799;43.594;13.526;2022-07-05T05:44:46;29.20;78.50
17364;DHT22;8799;43.594;13.526;2022-07-05T05:47:13;29.20;78.80
17364;DHT22;8799;43.594;13.526;2022-07-05T05:49:41;29.20;78.90
17364;DHT22;8799;43.594;13.526;2022-07-05T05:52:09;29.20;79.00
17364;DHT22;8799;43.594;13.526;2022-07-05T05:55:00;29.20;79.20
17364;DHT22;8799;43.594;13.526;2022-07-05T05:57:28;29.20;79.30
17364;DHT22;8799;43.594;13.526;2022-07-05T05:59:55;29.20;79.50
17364;DHT22;8799;43.594;13.526;2022-07-05T06:02:23;29.20;79.50
17364;DHT22;8799;43.594;13.526;2022-07-05T06:04:51;29.20;79.70
17364;DHT22;8799;43.594;13.526;2022-07-05T06:07:19;29.20;79.70
17364;DHT22;8799;43.594;13.526;2022-07-05T06:09:47;29.20;79.70
17364;DHT22;8799;43.594;13.526;2022-07-05T06:12:16;29.20;79.50
17364;DHT22;8799;43.594;13.526;2022-07-05T06:14:44;29.20;79.50
17364;DHT22;8799;43.594;13.526;2022-07-05T06:17:11;29.20;79.40
17364;DHT22;8799;43.594;13.526;2022-07-05T06:19:39;29.20;79.30
17364;DHT22;8799;43.594;13.526;2022-07-05T06:22:07;29.20;79.00
17364;DHT22;8799;43.594;13.526;2022-07-05T06:24:34;29.20;78.70
17364;DHT22;8799;43.594;13.526;2022-07-05T06:27:03;29.20;78.20
17364;DHT22;8799;43.594;13.526;2022-07-05T06:29:33;29.20;78.00
17364;DHT22;8799;43.594;13.526;2022-07-05T06:32:01;29.20;78.00
17364;DHT22;8799;43.594;13.526;2022-07-05T06:34:29;29.20;77.90
17364;DHT22;8799;43.594;13.526;2022-07-05T06:36:57;29.20;77.80
17364;DHT22;8799;43.594;13.526;2022-07-05T06:39:24;29.20;78.10
17364;DHT22;8799;43.594;13.526;2022-07-05T06:41:52;29.20;78.00
17364;DHT22;8799;43.594;13.526;2022-07-05T06:44:20;29.20;78.00
17364;DHT22;8799;43.594;13.526;2022-07-05T06:46:49;29.20;78.10
17364;DHT22;8799;43.594;13.526;2022-07-05T06:49:17;29.20;78.20
17364;DHT22;8799;43.594;13.526;2022-07-05T06:51:44;29.20;78.20
17364;DHT22;8799;43.594;13.526;2022-07-05T06:54:12;29.20;78.20
17364;DHT22;8799;43.594;13.526;2022-07-05T06:56:40;29.20;78.20
17364;DHT22;8799;43.594;13.526;2022-07-05T06:59:07;29.20;78.60
17364;DHT22;8799;43.594;13.526;2022-07-05T07:01:35;29.20;78.40
17364;DHT22;8799;43.594;13.526;2022-07-05T07:04:04;29.20;78.20
17364;DHT22;8799;43.594;13.526;2022-07-05T07:06:32;29.20;78.20
17364;DHT22;8799;43.594;13.526;2022-07-05T07:08:59;29.20;78.20
17364;DHT22;8799;43.594;13.526;2022-07-05T07:11:43;29.20;78.30
17364;DHT22;8799;43.594;13.526;2022-07-05T07:14:11;29.20;78.40
17364;DHT22;8799;43.594;13.526;2022-07-05T07:16:39;29.20;78.50
17364;DHT22;8799;43.594;13.526;2022-07-05T07:19:09;29.20;78.80
17364;DHT22;8799;43.594;13.526;2022-07-05T07:21:37;29.20;79.20
17364;DHT22;8799;43.594;13.526;2022-07-05T07:24:05;29.20;79.50
17364;DHT22;8799;43.594;13.526;2022-07-05T07:26:33;29.20;80.00
17364;DHT22;8799;43.594;13.526;2022-07-05T07:29:20;29.20;80.30
17364;DHT22;8799;43.594;13.526;2022-07-05T07:31:48;29.20;80.40
17364;DHT22;8799;43.594;13.526;2022-07-05T07:34:16;29.20;80.60
17364;DHT22;8799;43.594;13.526;2022-07-05T07:36:45;29.20;81.00
17364;DHT22;8799;43.594;13.526;2022-07-05T07:39:13;29.20;81.60
17364;DHT22;8799;43.594;13.526;2022-07-05T07:41:40;29.20;81.90
17364;DHT22;8799;43.594;13.526;2022-07-05T07:44:08;29.20;81.90
17364;DHT22;8799;43.594;13.526;2022-07-05T07:46:36;29.20;81.80
17364;DHT22;8799;43.594;13.526;2022-07-05T07:49:05;29.10;81.90
17364;DHT22;8799;43.594;13.526;2022-07-05T07:51:34;29.20;81.70
17364;DHT22;8799;43.594;13.526;2022-07-05T07:54:02;29.10;81.60
17364;DHT22;8799;43.594;13.526;2022-07-05T07:56:30;29.10;81.50
17364;DHT22;8799;43.594;13.526;2022-07-05T07:58:58;29.10;81.30
17364;DHT22;8799;43.594;13.526;2022-07-05T08:01:25;29.20;81.40
17364;DHT22;8799;43.594;13.526;2022-07-05T08:03:53;29.20;81.20
17364;DHT22;8799;43.594;13.526;2022-07-05T08:06:20;29.20;80.90
17364;DHT22;8799;43.594;13.526;2022-07-05T08:08:49;29.20;80.70
17364;DHT22;8799;43.594;13.526;2022-07-05T08:11:17;29.20;80.40
17364;DHT22;8799;43.594;13.526;2022-07-05T08:13:44;29.20;80.10
17364;DHT22;8799;43.594;13.526;2022-07-05T08:16:13;29.20;79.80
17364;DHT22;8799;43.594;13.526;2022-07-05T08:18:41;29.20;79.30
17364;DHT22;8799;43.594;13.526;2022-07-05T08:21:25;29.20;79.00
17364;DHT22;8799;43.594;13.526;2022-07-05T08:24:04;29.20;78.80
17364;DHT22;8799;43.594;13.526;2022-07-05T08:26:32;29.20;78.70
17364;DHT22;8799;43.594;13.526;2022-07-05T08:29:01;29.20;78.60
17364;DHT22;8799;43.594;13.526;2022-07-05T08:31:31;29.20;78.20
17364;DHT22;8799;43.594;13.526;2022-07-05T08:34:00;29.20;77.60
17364;DHT22;8799;43.594;13.526;2022-07-05T08:36:30;29.20;77.30
17364;DHT22;8799;43.594;13.526;2022-07-05T08:39:03;29.20;77.10
17364;DHT22;8799;43.594;13.526;2022-07-05T08:41:34;29.20;77.10
17364;DHT22;8799;43.594;13.526;2022-07-05T08:44:03;29.20;76.90
17364;DHT22;8799;43.594;13.526;2022-07-05T08:46:32;29.20;76.70
17364;DHT22;8799;43.594;13.526;2022-07-05T08:49:01;29.20;76.30
17364;DHT22;8799;43.594;13.526;2022-07-05T08:51:33;29.20;76.00
17364;DHT22;8799;43.594;13.526;2022-07-05T08:54:03;29.20;75.70
17364;DHT22;8799;43.594;13.526;2022-07-05T08:56:30;29.20;75.40
17364;DHT22;8799;43.594;13.526;2022-07-05T08:58:58;29.20;75.20
17364;DHT22;8799;43.594;13.526;2022-07-05T09:01:27;29.20;75.20
17364;DHT22;8799;43.594;13.526;2022-07-05T09:04:01;29.20;75.10
17364;DHT22;8799;43.594;13.526;2022-07-05T09:06:32;29.20;75.00
17364;DHT22;8799;43.594;13.526;2022-07-05T09:09:00;29.20;74.80
17364;DHT22;8799;43.594;13.526;2022-07-05T09:11:35;29.20;74.60
17364;DHT22;8799;43.594;13.526;2022-07-05T09:14:05;29.20;74.40
17364;DHT22;8799;43.594;13.526;2022-07-05T09:16:33;29.20;74.40
17364;DHT22;8799;43.594;13.526;2022-07-05T09:19:07;29.20;74.80
17364;DHT22;8799;43.594;13.526;2022-07-05T09:21:35;29.20;74.80
17364;DHT22;8799;43.594;13.526;2022-07-05T09:24:04;29.20;75.10
17364;DHT22;8799;43.594;13.526;2022-07-05T09:26:35;29.20;75.00
17364;DHT22;8799;43.594;13.526;2022-07-05T09:29:06;29.20;75.00
17364;DHT22;8799;43.594;13.526;2022-07-05T09:31:36;29.20;74.80
17364;DHT22;8799;43.594;13.526;2022-07-05T09:34:07;29.20;75.30
17364;DHT22;8799;43.594;13.526;2022-07-05T09:36:53;29.20;75.50
17364;DHT22;8799;43.594;13.526;2022-07-05T09:39:36;29.20;75.80
17364;DHT22;8799;43.594;13.526;2022-07-05T09:42:15;29.20;75.90
17364;DHT22;8799;43.594;13.526;2022-07-05T09:44:47;29.20;76.30
17364;DHT22;8799;43.594;13.526;2022-07-05T09:47:16;29.20;76.50
17364;DHT22;8799;43.594;13.526;2022-07-05T09:49:47;29.20;76.50
17364;DHT22;8799;43.594;13.526;2022-07-05T09:52:26;29.20;76.40
17364;DHT22;8799;43.594;13.526;2022-07-05T09:55:06;29.20;75.90
17364;DHT22;8799;43.594;13.526;2022-07-05T09:57:37;29.20;75.80
17364;DHT22;8799;43.594;13.526;2022-07-05T10:00:08;29.20;76.00
17364;DHT22;8799;43.594;13.526;2022-07-05T10:02:39;29.20;75.40
17364;DHT22;8799;43.594;13.526;2022-07-05T10:05:11;29.20;74.40
17364;DHT22;8799;43.594;13.526;2022-07-05T10:07:43;29.20;74.40
17364;DHT22;8799;43.594;13.526;2022-07-05T10:10:12;29.20;74.60
17364;DHT22;8799;43.594;13.526;2022-07-05T10:12:43;29.30;74.40
17364;DHT22;8799;43.594;13.526;2022-07-05T10:15:34;29.30;74.30
17364;DHT22;8799;43.594;13.526;2022-07-05T10:18:04;29.30;73.50
17364;DHT22;8799;43.594;13.526;2022-07-05T10:20:34;29.30;73.10
17364;DHT22;8799;43.594;13.526;2022-07-05T10:23:09;29.30;73.40
17364;DHT22;8799;43.594;13.526;2022-07-05T10:25:38;29.30;73.20
17364;DHT22;8799;43.594;13.526;2022-07-05T10:28:08;29.30;72.30
17364;DHT22;8799;43.594;13.526;2022-07-05T10:30:36;29.30;72.30
17364;DHT22;8799;43.594;13.526;2022-07-05T10:33:06;29.30;72.20
17364;DHT22;8799;43.594;13.526;2022-07-05T10:35:35;29.40;72.00
17364;DHT22;8799;43.594;13.526;2022-07-05T10:38:03;29.30;70.20
17364;DHT22;8799;43.594;13.526;2022-07-05T10:40:33;29.30;69.80
17364;DHT22;8799;43.594;13.526;2022-07-05T10:43:02;29.40;69.60
17364;DHT22;8799;43.594;13.526;2022-07-05T10:45:35;29.40;69.40
17364;DHT22;8799;43.594;13.526;2022-07-05T10:48:15;29.40;68.70
17364;DHT22;8799;43.594;13.526;2022-07-05T10:51:15;29.50;68.80
17364;DHT22;8799;43.594;13.526;2022-07-05T10:54:02;29.50;68.20
17364;DHT22;8799;43.594;13.526;2022-07-05T10:56:30;29.50;68.40
17364;DHT22;8799;43.594;13.526;2022-07-05T10:59:05;29.50;68.80
17364;DHT22;8799;43.594;13.526;2022-07-05T11:01:38;29.50;69.10
17364;DHT22;8799;43.594;13.526;2022-07-05T11:04:27;29.50;68.70
17364;DHT22;8799;43.594;13.526;2022-07-05T11:07:00;29.50;67.50
17364;DHT22;8799;43.594;13.526;2022-07-05T11:09:27;29.50;67.50
17364;DHT22;8799;43.594;13.526;2022-07-05T11:12:16;29.50;67.10
17364;DHT22;8799;43.594;13.526;2022-07-05T11:14:47;29.50;67.90
17364;DHT22;8799;43.594;13.526;2022-07-05T11:17:24;29.50;68.80
17364;DHT22;8799;43.594;13.526;2022-07-05T11:20:27;29.50;68.30
17364;DHT22;8799;43.594;13.526;2022-07-05T11:23:15;29.50;69.30
17364;DHT22;8799;43.594;13.526;2022-07-05T11:25:53;29.50;69.30
17364;DHT22;8799;43.594;13.526;2022-07-05T11:28:23;29.50;70.40
17364;DHT22;8799;43.594;13.526;2022-07-05T11:30:56;29.50;70.60
17364;DHT22;8799;43.594;13.526;2022-07-05T11:33:32;29.50;70.20
17364;DHT22;8799;43.594;13.526;2022-07-05T11:36:00;29.60;70.50
17364;DHT22;8799;43.594;13.526;2022-07-05T11:38:27;29.60;70.70
17364;DHT22;8799;43.594;13.526;2022-07-05T11:41:00;29.60;71.20
17364;DHT22;8799;43.594;13.526;2022-07-05T11:43:37;29.60;69.60
17364;DHT22;8799;43.594;13.526;2022-07-05T11:46:07;29.60;70.00
17364;DHT22;8799;43.594;13.526;2022-07-05T11:48:38;29.60;71.00
17364;DHT22;8799;43.594;13.526;2022-07-05T11:51:13;29.60;71.50
17364;DHT22;8799;43.594;13.526;2022-07-05T11:53:41;29.60;71.40
17364;DHT22;8799;43.594;13.526;2022-07-05T11:56:09;29.60;71.50
17364;DHT22;8799;43.594;13.526;2022-07-05T11:58:38;29.60;71.90
17364;DHT22;8799;43.594;13.526;2022-07-05T12:01:05;29.60;72.00
17364;DHT22;8799;43.594;13.526;2022-07-05T12:03:56;29.60;72.00
17364;DHT22;8799;43.594;13.526;2022-07-05T12:06:24;29.60;73.10
17364;DHT22;8799;43.594;13.526;2022-07-05T12:09:02;29.60;72.80
17364;DHT22;8799;43.594;13.526;2022-07-05T12:11:30;29.60;73.10
17364;DHT22;8799;43.594;13.526;2022-07-05T12:14:22;29.70;74.00
17364;DHT22;8799;43.594;13.526;2022-07-05T12:17:10;29.60;74.40
17364;DHT22;8799;43.594;13.526;2022-07-05T12:19:42;29.70;75.30
17364;DHT22;8799;43.594;13.526;2022-07-05T12:22:13;29.70;75.80
17364;DHT22;8799;43.594;13.526;2022-07-05T12:24:45;29.70;75.80
17364;DHT22;8799;43.594;13.526;2022-07-05T12:27:14;29.70;76.00
17364;DHT22;8799;43.594;13.526;2022-07-05T12:29:43;29.70;75.80
17364;DHT22;8799;43.594;13.526;2022-07-05T12:32:13;29.70;75.90
17364;DHT22;8799;43.594;13.526;2022-07-05T12:34:42;29.70;76.20
17364;DHT22;8799;43.594;13.526;2022-07-05T12:37:09;29.70;77.00
17364;DHT22;8799;43.594;13.526;2022-07-05T12:39:37;29.70;76.70
17364;DHT22;8799;43.594;13.526;2022-07-05T12:42:05;29.70;77.20
17364;DHT22;8799;43.594;13.526;2022-07-05T12:44:33;29.70;77.30
17364;DHT22;8799;43.594;13.526;2022-07-05T12:47:05;29.70;77.30
17364;DHT22;8799;43.594;13.526;2022-07-05T12:49:55;29.60;77.50
17364;DHT22;8799;43.594;13.526;2022-07-05T12:52:23;29.60;77.70
17364;DHT22;8799;43.594;13.526;2022-07-05T12:55:11;29.50;77.40
17364;DHT22;8799;43.594;13.526;2022-07-05T12:57:56;29.50;76.90
17364;DHT22;8799;43.594;13.526;2022-07-05T13:00:30;29.50;75.30
17364;DHT22;8799;43.594;13.526;2022-07-05T13:02:58;29.60;73.70
17364;DHT22;8799;43.594;13.526;2022-07-05T13:05:28;29.60;73.30
17364;DHT22;8799;43.594;13.526;2022-07-05T13:07:56;29.60;72.00
17364;DHT22;8799;43.594;13.526;2022-07-05T13:10:25;29.60;71.10
17364;DHT22;8799;43.594;13.526;2022-07-05T13:12:54;29.60;71.30
17364;DHT22;8799;43.594;13.526;2022-07-05T13:15:22;29.60;70.80
17364;DHT22;8799;43.594;13.526;2022-07-05T13:17:50;29.60;71.00
17364;DHT22;8799;43.594;13.526;2022-07-05T13:20:19;29.60;71.40
17364;DHT22;8799;43.594;13.526;2022-07-05T13:22:50;29.60;71.70
17364;DHT22;8799;43.594;13.526;2022-07-05T13:25:18;29.60;71.40
17364;DHT22;8799;43.594;13.526;2022-07-05T13:27:46;29.70;70.30
17364;DHT22;8799;43.594;13.526;2022-07-05T13:30:14;29.60;69.60
17364;DHT22;8799;43.594;13.526;2022-07-05T13:32:42;29.70;70.20
17364;DHT22;8799;43.594;13.526;2022-07-05T13:35:09;29.70;69.60
17364;DHT22;8799;43.594;13.526;2022-07-05T13:37:38;29.70;69.40
17364;DHT22;8799;43.594;13.526;2022-07-05T13:40:10;29.70;69.20
17364;DHT22;8799;43.594;13.526;2022-07-05T13:42:38;29.70;68.10
17364;DHT22;8799;43.594;13.526;2022-07-05T13:45:07;29.70;68.90
17364;DHT22;8799;43.594;13.526;2022-07-05T13:47:35;29.70;69.80
17364;DHT22;8799;43.594;13.526;2022-07-05T13:50:03;29.70;70.80
17364;DHT22;8799;43.594;13.526;2022-07-05T13:52:48;29.70;70.70
17364;DHT22;8799;43.594;13.526;2022-07-05T13:55:17;29.70;70.40
17364;DHT22;8799;43.594;13.526;2022-07-05T13:57:49;29.70;69.70
17364;DHT22;8799;43.594;13.526;2022-07-05T14:00:17;29.70;69.70
17364;DHT22;8799;43.594;13.526;2022-07-05T14:02:45;29.70;69.50
17364;DHT22;8799;43.594;13.526;2022-07-05T14:05:13;29.70;69.60
17364;DHT22;8799;43.594;13.526;2022-07-05T14:07:43;29.70;69.80
17364;DHT22;8799;43.594;13.526;2022-07-05T14:10:11;29.70;69.80
17364;DHT22;8799;43.594;13.526;2022-07-05T14:12:41;29.70;69.10
17364;DHT22;8799;43.594;13.526;2022-07-05T14:15:09;29.70;69.00
17364;DHT22;8799;43.594;13.526;2022-07-05T14:17:36;29.70;68.70
17364;DHT22;8799;43.594;13.526;2022-07-05T14:20:06;29.70;66.70
17364;DHT22;8799;43.594;13.526;2022-07-05T14:22:34;29.80;65.40
17364;DHT22;8799;43.594;13.526;2022-07-05T14:25:01;29.80;65.40
17364;DHT22;8799;43.594;13.526;2022-07-05T14:27:29;29.80;65.50
17364;DHT22;8799;43.594;13.526;2022-07-05T14:30:01;29.80;66.30
17364;DHT22;8799;43.594;13.526;2022-07-05T14:32:29;29.80;65.70
17364;DHT22;8799;43.594;13.526;2022-07-05T14:34:57;29.80;65.10
17364;DHT22;8799;43.594;13.526;2022-07-05T14:37:25;29.80;65.90
17364;DHT22;8799;43.594;13.526;2022-07-05T14:39:53;29.80;66.80
17364;DHT22;8799;43.594;13.526;2022-07-05T14:42:20;29.80;67.10
17364;DHT22;8799;43.594;13.526;2022-07-05T14:44:50;29.80;67.80
17364;DHT22;8799;43.594;13.526;2022-07-05T14:47:19;29.80;68.30
17364;DHT22;8799;43.594;13.526;2022-07-05T14:49:48;29.80;68.40
17364;DHT22;8799;43.594;13.526;2022-07-05T14:52:16;29.80;68.50
17364;DHT22;8799;43.594;13.526;2022-07-05T14:54:43;29.80;68.20
17364;DHT22;8799;43.594;13.526;2022-07-05T14:57:15;29.80;68.10
17364;DHT22;8799;43.594;13.526;2022-07-05T14:59:43;29.70;67.40
17364;DHT22;8799;43.594;13.526;2022-07-05T15:02:11;29.70;67.00
17364;DHT22;8799;43.594;13.526;2022-07-05T15:04:42;29.70;67.30
17364;DHT22;8799;43.594;13.526;2022-07-05T15:07:10;29.70;67.70
17364;DHT22;8799;43.594;13.526;2022-07-05T15:09:37;29.70;68.70
17364;DHT22;8799;43.594;13.526;2022-07-05T15:12:05;29.70;69.70
17364;DHT22;8799;43.594;13.526;2022-07-05T15:14:32;29.70;69.80
17364;DHT22;8799;43.594;13.526;2022-07-05T15:17:00;29.70;69.30
17364;DHT22;8799;43.594;13.526;2022-07-05T15:19:29;29.70;69.30
17364;DHT22;8799;43.594;13.526;2022-07-05T15:21:58;29.70;69.80
17364;DHT22;8799;43.594;13.526;2022-07-05T15:24:25;29.70;70.10
17364;DHT22;8799;43.594;13.526;2022-07-05T15:26:54;29.70;69.50
17364;DHT22;8799;43.594;13.526;2022-07-05T15:29:23;29.70;69.10
17364;DHT22;8799;43.594;13.526;2022-07-05T15:31:53;29.70;68.60
17364;DHT22;8799;43.594;13.526;2022-07-05T15:34:21;29.70;68.30
17364;DHT22;8799;43.594;13.526;2022-07-05T15:36:48;29.70;68.20
17364;DHT22;8799;43.594;13.526;2022-07-05T15:39:17;29.70;68.50
17364;DHT22;8799;43.594;13.526;2022-07-05T15:41:45;29.70;68.70
17364;DHT22;8799;43.594;13.526;2022-07-05T15:44:12;29.70;68.60
17364;DHT22;8799;43.594;13.526;2022-07-05T15:47:02;29.70;68.60
17364;DHT22;8799;43.594;13.526;2022-07-05T15:49:32;29.70;68.60